sensor_id;sensor_type;location;lat;lon;timestamp;temperature;humidity
24374;DHT22;12498;50.880;12.096;2024-03-23T01:29:42;9.80;99.90
24374;DHT22;12498;50.880;12.096;2024-03-23T01:32:08;9.80;99.90
24374;DHT22;12498;50.880;12.096;2024-03-23T01:34:33;9.70;99.90
24374;DHT22;12498;50.880;12.096;2024-03-23T01:36:59;9.70;99.90
24374;DHT22;12498;50.880;12.096;2024-03-23T16:02:18;10.30;99.90
24374;DHT22;12498;50.880;12.096;2024-03-23T16:04:43;10.20;99.90
24374;DHT22;12498;50.880;12.096;2024-03-23T20:23:45;5.30;91.70
24374;DHT22;12498;50.880;12.096;2024-03-23T20:26:11;5.00;99.90
24374;DHT22;12498;50.880;12.096;2024-03-23T20:28:36;5.00;1.00
24374;DHT22;12498;50.880;12.096;2024-03-23T20:31:02;5.10;1.00
24374;DHT22;12498;50.880;12.096;2024-03-23T20:35:57;5.00;40.90
24374;DHT22;12498;50.880;12.096;2024-03-23T20:40:52;5.00;1.00
24374;DHT22;12498;50.880;12.096;2024-03-23T20:43:17;5.10;1.00
24374;DHT22;12498;50.880;12.096;2024-03-23T20:45:43;4.90;1.00
24374;DHT22;12498;50.880;12.096;2024-03-23T20:48:08;5.00;1.00
24374;DHT22;12498;50.880;12.096;2024-03-23T20:50:34;4.80;1.00
24374;DHT22;12498;50.880;12.096;2024-03-23T20:53:00;4.80;60.40
24374;DHT22;12498;50.880;12.096;2024-03-23T20:55:25;4.70;99.90
24374;DHT22;12498;50.880;12.096;2024-03-23T20:57:51;4.80;99.90
24374;DHT22;12498;50.880;12.096;2024-03-23T21:00:20;4.70;99.90
24374;DHT22;12498;50.880;12.096;2024-03-23T21:02:45;4.70;99.90
24374;DHT22;12498;50.880;12.096;2024-03-23T21:05:11;4.70;99.90
24374;DHT22;12498;50.880;12.096;2024-03-23T21:07:37;4.60;99.90
24374;DHT22;12498;50.880;12.096;2024-03-23T21:10:03;4.60;1.00
24374;DHT22;12498;50.880;12.096;2024-03-23T21:12:29;4.70;1.00
24374;DHT22;12498;50.880;12.096;2024-03-23T21:14:54;4.60;1.00
24374;DHT22;12498;50.880;12.096;2024-03-23T21:17:20;4.60;1.00
24374;DHT22;12498;50.880;12.096;2024-03-23T21:19:49;4.60;1.00
24374;DHT22;12498;50.880;12.096;2024-03-23T21:22:14;4.60;99.90
24374;DHT22;12498;50.880;12.096;2024-03-23T21:24:40;4.60;1.00
24374;DHT22;12498;50.880;12.096;2024-03-23T21:27:10;4.50;1.00
24374;DHT22;12498;50.880;12.096;2024-03-23T21:29:36;4.60;99.90
24374;DHT22;12498;50.880;12.096;2024-03-23T21:32:01;4.60;99.90
24374;DHT22;12498;50.880;12.096;2024-03-23T21:34:27;4.70;1.00
24374;DHT22;12498;50.880;12.096;2024-03-23T21:36:52;4.50;1.00
24374;DHT22;12498;50.880;12.096;2024-03-23T21:39:19;4.70;1.00
24374;DHT22;12498;50.880;12.096;2024-03-23T21:41:45;4.60;99.90
24374;DHT22;12498;50.880;12.096;2024-03-23T21:44:11;4.70;99.90
24374;DHT22;12498;50.880;12.096;2024-03-23T21:46:36;4.80;99.90
24374;DHT22;12498;50.880;12.096;2024-03-23T21:49:02;4.70;99.90
24374;DHT22;12498;50.880;12.096;2024-03-23T21:51:27;4.70;99.90
24374;DHT22;12498;50.880;12.096;2024-03-23T21:53:53;4.80;99.90
24374;DHT22;12498;50.880;12.096;2024-03-23T21:56:18;4.80;99.90
24374;DHT22;12498;50.880;12.096;2024-03-23T21:58:44;4.90;99.90
24374;DHT22;12498;50.880;12.096;2024-03-23T22:01:10;4.90;99.90
24374;DHT22;12498;50.880;12.096;2024-03-23T22:03:35;4.90;99.90
24374;DHT22;12498;50.880;12.096;2024-03-23T22:06:01;4.90;99.90
24374;DHT22;12498;50.880;12.096;2024-03-23T22:08:27;4.80;1.00
24374;DHT22;12498;50.880;12.096;2024-03-23T22:10:52;4.70;1.00
24374;DHT22;12498;50.880;12.096;2024-03-23T22:13:18;4.90;1.00
24374;DHT22;12498;50.880;12.096;2024-03-23T22:15:44;4.80;1.00
24374;DHT22;12498;50.880;12.096;2024-03-23T22:18:14;4.80;1.00
24374;DHT22;12498;50.880;12.096;2024-03-23T22:20:39;5.00;1.00
24374;DHT22;12498;50.880;12.096;2024-03-23T22:23:08;5.70;99.90
24374;DHT22;12498;50.880;12.096;2024-03-23T22:25:36;4.80;99.90
24374;DHT22;12498;50.880;12.096;2024-03-23T22:28:02;4.80;99.90
24374;DHT22;12498;50.880;12.096;2024-03-23T22:30:28;4.80;99.90
24374;DHT22;12498;50.880;12.096;2024-03-23T22:32:53;4.70;99.90
24374;DHT22;12498;50.880;12.096;2024-03-23T22:35:20;4.80;99.90
24374;DHT22;12498;50.880;12.096;2024-03-23T22:37:45;4.80;99.90
24374;DHT22;12498;50.880;12.096;2024-03-23T22:40:11;4.80;1.00
24374;DHT22;12498;50.880;12.096;2024-03-23T22:42:37;4.70;99.90
24374;DHT22;12498;50.880;12.096;2024-03-23T22:45:03;4.70;99.90
24374;DHT22;12498;50.880;12.096;2024-03-23T22:47:30;4.70;99.90
24374;DHT22;12498;50.880;12.096;2024-03-23T22:49:55;4.70;24.40
24374;DHT22;12498;50.880;12.096;2024-03-23T22:52:21;4.80;1.00
24374;DHT22;12498;50.880;12.096;2024-03-23T22:54:46;4.80;1.00
24374;DHT22;12498;50.880;12.096;2024-03-23T22:57:12;4.80;1.00
24374;DHT22;12498;50.880;12.096;2024-03-23T22:59:38;4.60;8.00
24374;DHT22;12498;50.880;12.096;2024-03-23T23:02:04;4.50;81.10
24374;DHT22;12498;50.880;12.096;2024-03-23T23:04:29;4.70;97.80
24374;DHT22;12498;50.880;12.096;2024-03-23T23:06:59;4.50;99.90
24374;DHT22;12498;50.880;12.096;2024-03-23T23:11:51;4.60;99.90
